Time;durP1;ratioP1;P1;durP2;ratioP2;P2;SDS_P1;SDS_P2;PMS_P1;PMS_P2;Temp;Humidity;BMP_temperature;BMP_pressure;BME280_temperature;BME280_humidity;BME280_pressure;Samples;Min_cycle;Max_cycle;Signal;HPM_P1;HPM_P2
2021/08/02 00:01:13;;;;;;;1.40;1.30;;;;;;;16.84;63.74;99703.84;5029517;28;20563;-67
2021/08/02 00:03:50;;;;;;;4.07;1.27;;;;;;;16.82;63.30;99703.13;5030755;28;20550;-66
2021/08/02 00:06:22;;;;;;;1.47;1.27;;;;;;;16.69;63.21;99687.38;5028112;28;20277;-66
2021/08/02 00:08:57;;;;;;;5.07;1.40;;;;;;;16.73;63.82;99696.88;5029588;28;20199;-68
2021/08/02 00:11:33;;;;;;;2.70;1.30;;;;;;;16.70;63.64;99707.19;5029713;28;20225;-71
2021/08/02 00:14:05;;;;;;;2.80;1.20;;;;;;;16.64;63.98;99699.72;5028906;28;20198;-71
2021/08/02 00:16:36;;;;;;;5.10;1.20;;;;;;;16.61;63.41;99702.78;5030254;28;20237;-67
2021/08/02 00:19:07;;;;;;;3.67;1.20;;;;;;;16.56;63.66;99702.44;5030836;28;20207;-70
2021/08/02 00:21:35;;;;;;;3.13;1.27;;;;;;;16.36;63.63;99678.34;5031695;28;20222;-71
2021/08/02 00:24:04;;;;;;;1.90;1.30;;;;;;;16.50;63.19;99695.78;5026488;28;20588;-71
2021/08/02 00:26:33;;;;;;;3.10;1.27;;;;;;;16.46;63.12;99703.41;5031456;28;20693;-71
2021/08/02 00:29:02;;;;;;;1.70;1.17;;;;;;;16.43;63.36;99701.03;5038532;28;20727;-70
2021/08/02 00:31:30;;;;;;;3.13;1.30;;;;;;;16.37;63.57;99690.03;5028388;28;20565;-71
2021/08/02 00:34:00;;;;;;;3.07;1.30;;;;;;;16.32;63.86;99693.25;5029019;28;20207;-67
2021/08/02 00:36:34;;;;;;;2.00;1.27;;;;;;;16.28;63.66;99697.31;5030033;28;20202;-66
2021/08/02 00:39:06;;;;;;;2.17;1.23;;;;;;;16.21;63.77;99690.84;5030547;28;20282;-67
2021/08/02 00:42:15;;;;;;;2.20;1.30;;;;;;;16.12;64.13;99689.13;5025893;28;20873;-67
2021/08/02 00:45:10;;;;;;;2.57;1.10;;;;;;;16.04;64.69;99689.13;4996710;28;20214;-66
2021/08/02 00:47:47;;;;;;;1.30;1.20;;;;;;;15.89;64.51;99671.78;5027954;28;20203;-71
2021/08/02 00:50:19;;;;;;;5.90;1.30;;;;;;;15.81;65.14;99676.16;5045023;28;20238;-67
2021/08/02 00:52:52;;;;;;;2.27;1.23;;;;;;;15.77;64.97;99685.63;5044620;28;20195;-67
2021/08/02 00:55:21;;;;;;;2.33;1.27;;;;;;;15.68;64.76;99686.63;5044791;28;20215;-70
2021/08/02 00:57:55;;;;;;;2.80;1.30;;;;;;;15.52;66.50;99684.66;5040124;28;20207;-67
2021/08/02 01:00:27;;;;;;;3.00;1.30;;;;;;;15.47;65.75;99695.09;5027365;28;20226;-70
2021/08/02 01:02:57;;;;;;;3.00;1.30;;;;;;;15.42;65.85;99692.03;5027522;28;20202;-66
2021/08/02 01:05:27;;;;;;;1.20;1.00;;;;;;;15.33;65.86;99684.91;5028878;28;20736;-66
2021/08/02 01:08:01;;;;;;;1.43;1.10;;;;;;;15.36;66.02;99686.44;5028933;28;20664;-67
2021/08/02 01:10:34;;;;;;;1.60;1.10;;;;;;;15.34;65.28;99683.88;5029298;28;20230;-67
2021/08/02 01:13:08;;;;;;;2.50;1.20;;;;;;;15.33;65.04;99684.91;5027318;28;20260;-71
2021/08/02 01:15:38;;;;;;;3.20;1.10;;;;;;;15.34;64.92;99683.03;5027258;28;20345;-67
2021/08/02 01:18:12;;;;;;;1.67;1.10;;;;;;;15.31;65.39;99678.81;5028881;28;20194;-67
2021/08/02 01:20:47;;;;;;;1.37;1.20;;;;;;;15.30;64.86;99684.34;5029338;28;20321;-69
2021/08/02 01:23:19;;;;;;;3.17;1.17;;;;;;;14.90;64.68;99634.41;5025737;28;20202;-71
2021/08/02 01:26:17;;;;;;;1.70;0.90;;;;;;;15.11;65.98;99680.03;5025379;28;20270;-68
2021/08/02 01:29:27;;;;;;;1.53;1.17;;;;;;;14.98;66.52;99685.84;5041695;28;20260;-67
2021/08/02 01:31:55;;;;;;;2.20;1.10;;;;;;;14.92;66.03;99670.25;5028738;28;20305;-71
2021/08/02 01:34:25;;;;;;;2.10;1.10;;;;;;;14.88;66.13;99679.69;5026954;28;20714;-71
2021/08/02 01:36:54;;;;;;;2.27;1.27;;;;;;;14.84;65.93;99679.16;5028582;28;20207;-71
2021/08/02 01:39:23;;;;;;;3.73;1.30;;;;;;;14.79;66.40;99680.66;5026575;28;20211;-71
2021/08/02 01:41:53;;;;;;;1.77;1.10;;;;;;;14.80;65.87;99685.03;5029372;28;20261;-70
2021/08/02 01:44:21;;;;;;;4.67;1.20;;;;;;;14.75;66.34;99674.72;5025303;28;20257;-70
2021/08/02 01:46:58;;;;;;;3.70;1.00;;;;;;;14.76;66.85;99678.25;5023974;28;20203;-71
2021/08/02 01:49:36;;;;;;;2.17;1.37;;;;;;;14.75;66.67;99682.81;5026868;28;20260;-71
2021/08/02 01:52:10;;;;;;;1.80;1.17;;;;;;;14.72;66.88;99684.97;5043064;28;20256;-71
2021/08/02 01:54:45;;;;;;;2.70;1.03;;;;;;;14.69;67.04;99685.28;5028407;28;20202;-70
2021/08/02 01:57:19;;;;;;;1.20;1.07;;;;;;;14.50;67.79;99670.09;5027346;28;20600;-71
2021/08/02 02:00:09;;;;;;;1.30;1.10;;;;;;;14.60;66.91;99689.75;5025282;28;20675;-71
2021/08/02 02:03:11;;;;;;;1.27;1.00;;;;;;;14.59;67.44;99691.63;5025541;28;20782;-71
2021/08/02 02:05:52;;;;;;;1.10;1.00;;;;;;;14.57;67.04;99696.34;5042868;28;20659;-71
2021/08/02 02:08:24;;;;;;;2.93;1.17;;;;;;;14.58;66.57;99700.72;5026846;28;20206;-71
2021/08/02 02:10:56;;;;;;;1.50;1.10;;;;;;;14.55;67.21;99698.34;5044347;28;20210;-67
2021/08/02 02:13:45;;;;;;;1.13;1.03;;;;;;;14.52;66.74;99700.50;5027761;28;20289;-71
2021/08/02 02:16:16;;;;;;;1.67;1.20;;;;;;;14.52;66.80;99698.66;5024353;28;20263;-71
2021/08/02 02:18:49;;;;;;;2.00;1.07;;;;;;;14.47;67.46;99689.31;5042852;28;20222;-71
2021/08/02 02:21:20;;;;;;;5.87;1.10;;;;;;;14.50;67.30;99697.97;5027532;28;20252;-67
2021/08/02 02:23:54;;;;;;;1.97;1.00;;;;;;;14.21;66.82;99648.69;5027101;28;20225;-67
2021/08/02 02:26:27;;;;;;;1.30;1.10;;;;;;;14.28;67.37;99668.69;5024709;28;20301;-67
2021/08/02 02:28:56;;;;;;;2.20;1.10;;;;;;;14.45;67.40;99700.28;5039597;28;20293;-71
2021/08/02 02:31:26;;;;;;;2.87;1.00;;;;;;;14.39;68.33;99700.88;5025559;28;20195;-71
2021/08/02 02:34:00;;;;;;;7.10;1.30;;;;;;;14.41;67.17;99693.47;5026678;28;20198;-71
2021/08/02 02:36:30;;;;;;;1.70;0.90;;;;;;;14.42;66.85;99688.91;5042932;28;20285;-67
2021/08/02 02:39:00;;;;;;;0.80;0.80;;;;;;;14.49;66.80;99695.41;5025631;28;20543;-67
2021/08/02 02:41:31;;;;;;;1.20;1.10;;;;;;;14.51;66.63;99698.81;5028469;28;20711;-68
2021/08/02 02:44:03;;;;;;;1.40;1.10;;;;;;;14.10;67.11;99641.69;5026056;28;20198;-71
2021/08/02 02:46:33;;;;;;;1.10;1.00;;;;;;;14.45;67.30;99699.44;5025220;28;20202;-67
2021/08/02 02:49:05;;;;;;;1.33;1.10;;;;;;;14.40;67.90;99702.56;5026600;28;20535;-67
2021/08/02 02:51:36;;;;;;;1.87;1.33;;;;;;;14.37;67.99;99696.59;5025359;28;20238;-67
2021/08/02 02:54:05;;;;;;;1.00;1.00;;;;;;;14.40;68.22;99697.16;5028154;28;20194;-67
2021/08/02 02:56:38;;;;;;;1.93;0.90;;;;;;;14.45;67.65;99697.59;5024124;28;20228;-71
2021/08/02 02:59:06;;;;;;;1.10;1.00;;;;;;;14.52;66.56;99706.75;5026219;28;20197;-71
2021/08/02 03:01:39;;;;;;;4.60;1.20;;;;;;;14.57;66.66;99701.75;5024896;28;20215;-68
2021/08/02 03:04:12;;;;;;;2.20;1.20;;;;;;;14.65;66.67;99709.06;5026902;28;20198;-71
2021/08/02 03:06:43;;;;;;;2.53;1.10;;;;;;;14.70;65.98;99703.22;5026452;28;20252;-67
2021/08/02 03:09:17;;;;;;;2.73;1.07;;;;;;;14.71;66.83;99704.91;5026572;28;20241;-71
2021/08/02 03:11:48;;;;;;;11.70;1.20;;;;;;;14.59;66.95;99688.91;5026647;28;20289;-67
2021/08/02 03:14:17;;;;;;;1.47;1.10;;;;;;;14.67;67.02;99708.91;5024334;28;20190;-67
2021/08/02 03:16:45;;;;;;;7.77;1.23;;;;;;;14.60;67.90;99709.53;5026320;28;20211;-71
2021/08/02 03:19:13;;;;;;;4.70;1.37;;;;;;;14.59;68.59;99706.97;5028629;28;20214;-71
2021/08/02 03:21:41;;;;;;;1.30;1.17;;;;;;;14.62;68.21;99706.66;5031461;28;20217;-67
2021/08/02 03:24:16;;;;;;;1.07;0.93;;;;;;;14.59;68.64;99707.84;5028858;28;20198;-67
2021/08/02 03:26:51;;;;;;;2.67;1.33;;;;;;;14.60;68.57;99711.38;5029108;28;20205;-67
2021/08/02 03:29:25;;;;;;;4.70;1.30;;;;;;;14.56;69.63;99704.59;5028399;28;20244;-68
2021/08/02 03:31:58;;;;;;;2.40;1.00;;;;;;;14.35;70.03;99674.31;5030576;28;20226;-67
2021/08/02 03:34:30;;;;;;;3.23;1.23;;;;;;;14.54;69.38;99704.75;5031139;28;20187;-67
2021/08/02 03:37:00;;;;;;;3.90;1.33;;;;;;;14.58;70.21;99703.44;5031338;28;20195;-67
2021/08/02 03:39:30;;;;;;;3.07;1.20;;;;;;;14.51;71.15;99699.66;5031253;28;20199;-67
2021/08/02 03:42:01;;;;;;;2.33;1.20;;;;;;;14.65;70.30;99705.50;5028859;28;20210;-67
2021/08/02 03:44:30;;;;;;;1.97;1.50;;;;;;;14.80;68.39;99703.97;5027283;28;20630;-67
2021/08/02 03:46:59;;;;;;;1.83;1.13;;;;;;;14.94;67.94;99706.09;5029531;28;20600;-71
2021/08/02 03:49:27;;;;;;;2.53;1.13;;;;;;;15.06;68.27;99707.53;5028146;28;20236;-67
2021/08/02 03:51:57;;;;;;;2.37;1.40;;;;;;;15.21;67.73;99707.81;5030204;28;20186;-71
2021/08/02 03:54:27;;;;;;;3.10;1.43;;;;;;;15.28;69.66;99700.75;5030194;28;20198;-71
2021/08/02 03:56:56;;;;;;;3.20;1.50;;;;;;;15.31;69.21;99699.59;5028229;28;20198;-71
2021/08/02 03:59:26;;;;;;;3.43;1.40;;;;;;;15.39;69.93;99707.75;5026725;28;20202;-72
2021/08/02 04:01:54;;;;;;;3.17;1.50;;;;;;;15.43;69.81;99709.13;5027712;28;20310;-67
2021/08/02 04:04:22;;;;;;;3.40;1.80;;;;;;;15.41;69.52;99709.28;5027374;28;20210;-71
2021/08/02 04:06:51;;;;;;;1.40;1.30;;;;;;;15.39;69.96;99708.59;5027999;28;20282;-71
2021/08/02 04:09:19;;;;;;;3.23;1.70;;;;;;;15.40;70.38;99698.63;5030799;28;20804;-71
2021/08/02 04:11:47;;;;;;;1.93;1.30;;;;;;;15.37;70.49;99691.69;5030105;28;20203;-71
2021/08/02 04:14:15;;;;;;;1.47;1.20;;;;;;;15.43;69.58;99701.84;5027192;28;20199;-72
2021/08/02 04:16:45;;;;;;;1.70;1.47;;;;;;;15.49;69.00;99705.78;5029406;28;20687;-67
2021/08/02 04:19:13;;;;;;;1.50;1.27;;;;;;;15.55;69.68;99713.25;5028151;28;20202;-68
2021/08/02 04:21:41;;;;;;;1.83;1.30;;;;;;;15.57;70.03;99713.06;5031494;28;20226;-71
2021/08/02 04:24:11;;;;;;;3.23;1.43;;;;;;;15.55;70.54;99710.53;5028924;28;20199;-71
2021/08/02 04:26:39;;;;;;;2.17;1.40;;;;;;;15.51;70.67;99709.16;5028874;28;20242;-71
2021/08/02 04:29:08;;;;;;;1.43;1.33;;;;;;;15.49;71.48;99703.91;5027101;28;20227;-71
2021/08/02 04:31:37;;;;;;;3.90;1.40;;;;;;;15.61;70.86;99709.94;5028836;28;20591;-71
2021/08/02 04:34:06;;;;;;;4.87;1.20;;;;;;;15.60;70.93;99705.50;5028878;28;20603;-71
2021/08/02 04:36:34;;;;;;;2.43;1.20;;;;;;;15.71;71.76;99716.06;5030463;28;20205;-71
2021/08/02 04:39:03;;;;;;;1.43;1.27;;;;;;;15.35;72.39;99660.38;5030060;28;20210;-67
2021/08/02 04:41:31;;;;;;;2.90;1.40;;;;;;;15.77;71.88;99715.41;5027574;28;20248;-67
2021/08/02 04:44:00;;;;;;;2.37;1.23;;;;;;;15.90;71.59;99719.50;5026319;28;20701;-67
2021/08/02 04:46:28;;;;;;;4.77;1.33;;;;;;;15.97;71.77;99720.59;5027918;28;20203;-67
2021/08/02 04:48:56;;;;;;;2.50;1.27;;;;;;;15.92;71.40;99702.13;5043850;28;20209;-68
2021/08/02 04:51:25;;;;;;;5.37;1.70;;;;;;;16.02;72.42;99712.81;5028007;28;20194;-67
2021/08/02 04:53:54;;;;;;;1.63;1.30;;;;;;;16.05;72.42;99713.31;5029278;28;20214;-67
2021/08/02 04:56:22;;;;;;;2.73;1.33;;;;;;;16.08;72.42;99707.56;5028207;28;20203;-67
2021/08/02 04:58:50;;;;;;;2.03;1.43;;;;;;;16.08;73.01;99704.03;5027178;28;20195;-67
2021/08/02 05:01:19;;;;;;;4.73;1.37;;;;;;;16.08;73.18;99712.16;5025577;28;20294;-67
2021/08/02 05:03:53;;;;;;;1.50;1.07;;;;;;;15.99;73.38;99694.19;5028598;28;20729;-67
2021/08/02 05:06:38;;;;;;;2.40;1.07;;;;;;;16.13;72.32;99691.66;5025070;28;20720;-66
2021/08/02 05:09:18;;;;;;;1.30;1.20;;;;;;;16.12;72.45;99687.25;5027550;28;20206;-66
2021/08/02 05:11:48;;;;;;;1.30;1.20;;;;;;;16.21;71.42;99681.84;5025578;28;20301;-67
2021/08/02 05:14:16;;;;;;;2.67;1.23;;;;;;;16.43;71.90;99711.88;5028007;28;20289;-72
2021/08/02 05:16:45;;;;;;;1.87;1.30;;;;;;;16.31;72.09;99691.56;5027176;28;20206;-71
2021/08/02 05:19:13;;;;;;;2.20;1.10;;;;;;;16.49;71.49;99706.81;5025680;28;20248;-68
2021/08/02 05:21:43;;;;;;;4.77;1.13;;;;;;;16.51;72.18;99707.47;5028489;28;20207;-68
2021/08/02 05:24:12;;;;;;;1.20;1.10;;;;;;;16.57;71.48;99702.25;5026646;28;20649;-68
2021/08/02 05:26:40;;;;;;;3.93;1.30;;;;;;;16.54;72.07;99707.19;5026982;28;20217;-67
2021/08/02 05:29:08;;;;;;;2.03;1.37;;;;;;;16.59;72.12;99710.22;5024703;28;20241;-71
2021/08/02 05:31:36;;;;;;;4.43;1.33;;;;;;;16.62;71.52;99707.19;5022898;28;20209;-72
2021/08/02 05:34:04;;;;;;;5.70;1.30;;;;;;;16.63;72.34;99717.00;5019440;28;20223;-71
2021/08/02 05:36:33;;;;;;;2.87;1.20;;;;;;;16.57;72.36;99702.25;5019917;28;20565;-71
2021/08/02 05:39:02;;;;;;;4.33;1.20;;;;;;;16.58;72.30;99697.69;5023865;28;20205;-71
2021/08/02 05:41:30;;;;;;;3.30;1.20;;;;;;;16.73;72.48;99701.44;5017970;28;20200;-71
2021/08/02 05:43:58;;;;;;;2.13;1.20;;;;;;;16.77;72.60;99700.06;5034399;28;20224;-71
2021/08/02 05:46:26;;;;;;;3.10;1.27;;;;;;;16.81;72.37;99690.59;5017115;28;20210;-67
2021/08/02 05:48:54;;;;;;;1.30;1.20;;;;;;;16.79;72.07;99672.78;5023024;28;20195;-67
2021/08/02 05:51:23;;;;;;;8.07;1.63;;;;;;;17.02;71.58;99693.63;5023076;28;20199;-67
2021/08/02 05:53:51;;;;;;;1.80;1.10;;;;;;;17.13;71.12;99699.72;5023110;28;20212;-71
2021/08/02 05:56:20;;;;;;;1.87;1.20;;;;;;;17.21;71.08;99697.84;5025390;28;20753;-71
2021/08/02 05:58:48;;;;;;;4.20;1.27;;;;;;;17.14;71.74;99687.84;5028043;28;20190;-71
2021/08/02 06:01:17;;;;;;;2.77;1.20;;;;;;;17.13;71.69;99687.00;5018892;28;20209;-67
2021/08/02 06:03:45;;;;;;;1.57;1.13;;;;;;;17.06;71.56;99681.41;5019634;28;20627;-67
2021/08/02 06:06:13;;;;;;;1.00;0.90;;;;;;;17.13;71.02;99687.00;5026241;28;20210;-72
2021/08/02 06:08:41;;;;;;;6.33;1.37;;;;;;;17.17;71.25;99690.22;5018222;28;20207;-71
2021/08/02 06:11:10;;;;;;;4.73;1.40;;;;;;;17.24;70.67;99688.50;5020528;28;20297;-71
2021/08/02 06:13:39;;;;;;;3.03;1.13;;;;;;;17.29;70.11;99688.84;5025561;28;20483;-71
2021/08/02 06:16:07;;;;;;;3.63;1.37;;;;;;;17.38;70.35;99691.34;5029945;28;20213;-67
2021/08/02 06:18:35;;;;;;;1.77;1.23;;;;;;;17.45;70.19;99686.09;5029524;28;20207;-67
2021/08/02 06:21:04;;;;;;;3.03;1.30;;;;;;;17.59;68.52;99688.06;5029123;28;20233;-67
2021/08/02 06:23:32;;;;;;;1.63;1.20;;;;;;;17.74;67.88;99684.66;5028397;28;20240;-71
2021/08/02 06:26:01;;;;;;;3.20;1.20;;;;;;;17.89;66.77;99688.31;5029555;28;20225;-67
2021/08/02 06:28:30;;;;;;;1.53;1.10;;;;;;;18.00;66.60;99682.47;5029669;28;20299;-68
2021/08/02 06:31:01;;;;;;;3.27;1.53;;;;;;;18.18;66.38;99699.38;5029653;28;20802;-67
2021/08/02 06:33:29;;;;;;;2.60;1.20;;;;;;;18.28;66.32;99694.56;5029445;28;20191;-67
2021/08/02 06:35:58;;;;;;;1.70;1.27;;;;;;;18.42;66.05;99694.81;5029637;28;20396;-67
2021/08/02 06:38:32;;;;;;;1.47;1.20;;;;;;;18.35;67.03;99672.94;5029948;28;20202;-67
2021/08/02 06:41:00;;;;;;;2.30;0.93;;;;;;;18.53;66.58;99686.25;5029132;28;20229;-71
2021/08/02 06:43:28;;;;;;;4.87;1.17;;;;;;;18.58;67.10;99683.81;5029607;28;20309;-71
2021/08/02 06:45:56;;;;;;;2.00;1.00;;;;;;;18.63;66.79;99684.16;5029796;28;20701;-71
2021/08/02 06:48:26;;;;;;;3.43;1.40;;;;;;;18.73;66.26;99690.22;5029386;28;20253;-67
2021/08/02 06:50:54;;;;;;;2.13;1.10;;;;;;;18.64;66.57;99699.44;5015871;28;20687;-67
2021/08/02 06:53:22;;;;;;;1.70;1.00;;;;;;;18.57;66.41;99690.28;5029353;28;20233;-72
2021/08/02 06:55:50;;;;;;;1.80;1.10;;;;;;;18.77;65.91;99688.81;5031343;28;20201;-69
2021/08/02 06:58:19;;;;;;;1.47;1.20;;;;;;;18.84;65.91;99680.75;5031357;28;20211;-69
2021/08/02 07:00:47;;;;;;;4.27;1.30;;;;;;;18.90;66.15;99682.72;5032274;28;20202;-69
2021/08/02 07:03:15;;;;;;;1.60;1.00;;;;;;;18.96;66.67;99683.88;5027258;28;20198;-66
2021/08/02 07:05:45;;;;;;;3.93;1.20;;;;;;;19.23;65.44;99691.44;5029211;28;20686;-67
2021/08/02 07:08:13;;;;;;;1.40;1.03;;;;;;;19.38;65.54;99697.75;5029223;28;20270;-67
2021/08/02 07:10:42;;;;;;;2.00;1.20;;;;;;;19.46;66.22;99689.50;5030647;28;20691;-67
2021/08/02 07:13:10;;;;;;;2.20;1.10;;;;;;;19.79;64.98;99689.97;5029016;28;20203;-68
2021/08/02 07:15:38;;;;;;;1.43;1.20;;;;;;;20.02;63.94;99689.00;5029101;28;20191;-67
2021/08/02 07:18:06;;;;;;;2.67;0.80;;;;;;;20.25;63.06;99691.59;5029471;28;20229;-67
2021/08/02 07:20:34;;;;;;;2.23;1.03;;;;;;;20.53;61.74;99686.28;5027227;28;20199;-68
2021/08/02 07:23:04;;;;;;;1.63;1.03;;;;;;;20.71;62.02;99690.22;5031383;28;20214;-67
2021/08/02 07:25:32;;;;;;;2.20;1.10;;;;;;;21.02;60.98;99695.34;5024929;28;20633;-67
2021/08/02 07:28:01;;;;;;;2.20;1.00;;;;;;;21.42;59.80;99689.34;5024228;28;20290;-67
2021/08/02 07:30:29;;;;;;;1.03;0.90;;;;;;;21.75;59.92;99681.38;5024757;28;20231;-67
2021/08/02 07:32:57;;;;;;;3.43;1.00;;;;;;;22.20;58.35;99690.84;5030312;28;20573;-67
2021/08/02 07:35:25;;;;;;;3.57;1.10;;;;;;;22.07;57.63;99688.06;5039800;28;20210;-67
2021/08/02 07:37:53;;;;;;;2.20;1.00;;;;;;;21.87;58.40;99691.50;5044447;28;20298;-67
2021/08/02 07:40:23;;;;;;;5.57;1.00;;;;;;;21.87;58.74;99686.06;5019236;28;20210;-68
2021/08/02 07:42:51;;;;;;;1.57;1.00;;;;;;;21.81;57.51;99686.88;5013492;28;20208;-67
2021/08/02 07:45:19;;;;;;;2.40;1.10;;;;;;;21.76;57.12;99694.00;5013207;28;20563;-67
2021/08/02 07:47:47;;;;;;;2.30;1.00;;;;;;;21.43;57.89;99682.84;5029114;28;20573;-67
2021/08/02 07:50:16;;;;;;;1.77;0.90;;;;;;;21.13;56.71;99693.97;5012995;28;20203;-67
2021/08/02 07:52:44;;;;;;;1.50;0.97;;;;;;;20.79;57.24;99689.25;5030232;28;20231;-67
2021/08/02 07:55:13;;;;;;;3.20;1.07;;;;;;;20.92;56.92;99680.34;5047663;28;20203;-67
2021/08/02 07:57:43;;;;;;;0.87;0.83;;;;;;;21.20;56.67;99683.94;5030072;28;20209;-67
2021/08/02 08:00:16;;;;;;;1.33;0.90;;;;;;;21.38;56.56;99684.28;5030365;28;20270;-67
2021/08/02 08:02:44;;;;;;;3.87;0.93;;;;;;;21.67;56.09;99688.66;5030859;28;20713;-67
2021/08/02 08:05:15;;;;;;;1.37;1.00;;;;;;;21.96;55.51;99673.03;5027978;28;20705;-67
2021/08/02 08:07:45;;;;;;;2.07;0.90;;;;;;;22.12;55.01;99685.56;5028976;28;20195;-67
2021/08/02 08:10:15;;;;;;;3.47;0.90;;;;;;;22.08;55.07;99685.13;5031579;28;20195;-67
2021/08/02 08:12:45;;;;;;;1.23;0.80;;;;;;;22.26;54.18;99684.53;5046585;28;20237;-66
2021/08/02 08:15:14;;;;;;;2.33;1.00;;;;;;;22.53;53.57;99680.00;5024977;28;20203;-67
2021/08/02 08:17:45;;;;;;;1.57;0.90;;;;;;;22.80;53.01;99673.50;5029047;28;20198;-69
2021/08/02 08:20:16;;;;;;;2.87;0.77;;;;;;;22.75;53.06;99669.72;5028012;28;20198;-69
2021/08/02 08:22:47;;;;;;;2.30;0.90;;;;;;;22.28;53.55;99606.69;5042645;28;20581;-69
2021/08/02 08:25:19;;;;;;;1.40;0.80;;;;;;;22.48;54.08;99666.94;5028991;28;20218;-68
2021/08/02 08:27:50;;;;;;;1.00;0.80;;;;;;;22.69;53.76;99633.06;5030113;28;20203;-68
2021/08/02 08:30:20;;;;;;;1.40;1.23;;;;;;;23.21;54.06;99667.81;5025709;28;20254;-67
2021/08/02 08:32:52;;;;;;;1.20;1.00;;;;;;;23.41;52.96;99662.31;5027395;28;20205;-67
2021/08/02 08:35:20;;;;;;;3.20;0.90;;;;;;;23.83;51.79;99660.97;5028289;28;20666;-67
2021/08/02 08:37:49;;;;;;;2.67;1.13;;;;;;;24.26;51.84;99660.38;5028849;28;20647;-67
2021/08/02 08:40:17;;;;;;;2.60;1.00;;;;;;;24.70;49.83;99642.16;5029258;28;20195;-67
2021/08/02 08:42:47;;;;;;;1.07;0.97;;;;;;;24.83;48.33;99628.31;5029928;28;20628;-67
2021/08/02 08:45:17;;;;;;;5.03;1.07;;;;;;;25.30;48.54;99643.34;5030464;28;20218;-67
2021/08/02 08:47:46;;;;;;;2.33;0.80;;;;;;;25.71;47.49;99657.53;5025127;28;20206;-67
2021/08/02 08:50:14;;;;;;;2.05;1.10;;;;;;;25.79;46.83;99651.75;5028030;28;20203;-68
2021/08/02 08:52:42;;;;;;;2.97;0.88;;;;;;;26.03;46.10;99645.31;5026492;28;20206;-68
2021/08/02 08:55:13;;;;;;;2.22;0.90;;;;;;;25.81;44.46;99631.19;5027060;28;20198;-68
2021/08/02 08:57:41;;;;;;;2.92;1.23;;;;;;;26.00;45.85;99651.25;5025223;28;20206;-68
2021/08/02 09:00:21;;;;;;;0.82;0.70;;;;;;;26.39;45.67;99643.56;5027540;28;20191;-68
2021/08/02 09:02:51;;;;;;;1.17;0.82;;;;;;;25.79;43.08;99647.06;5027758;28;20764;-68
2021/08/02 09:05:19;;;;;;;2.05;1.00;;;;;;;25.86;44.23;99649.75;5028670;28;20228;-68
2021/08/02 09:07:48;;;;;;;1.83;0.80;;;;;;;26.20;44.53;99642.72;5028477;28;20668;-69
2021/08/02 09:10:18;;;;;;;1.08;0.80;;;;;;;26.50;44.05;99648.25;5026630;28;20198;-69
2021/08/02 09:12:51;;;;;;;6.18;0.80;;;;;;;26.05;42.86;99656.06;5025876;28;20191;-69
2021/08/02 09:15:31;;;;;;;1.60;0.57;;;;;;;26.11;40.63;99649.63;5026030;28;20191;-68
2021/08/02 09:18:00;;;;;;;1.05;0.50;;;;;;;26.48;43.20;99650.41;5025133;28;20663;-69
2021/08/02 09:20:30;;;;;;;0.80;0.80;;;;;;;26.36;42.54;99652.31;5027460;28;20664;-69
2021/08/02 09:23:12;;;;;;;3.35;0.93;;;;;;;26.23;43.16;99661.53;5027547;28;20206;-67
2021/08/02 09:25:48;;;;;;;1.13;0.77;;;;;;;26.49;43.18;99666.72;5026631;28;20237;-67
2021/08/02 09:28:18;;;;;;;1.88;0.75;;;;;;;26.41;42.41;99660.69;5027629;28;20218;-68
2021/08/02 09:30:56;;;;;;;3.30;1.10;;;;;;;26.37;41.75;99673.25;5026447;28;20207;-68
2021/08/02 09:33:25;;;;;;;1.40;1.00;;;;;;;26.38;42.29;99658.41;5025817;28;20643;-66
2021/08/02 09:35:54;;;;;;;1.67;0.75;;;;;;;26.38;42.19;99659.25;5025008;28;20187;-68
2021/08/02 09:38:24;;;;;;;2.92;1.20;;;;;;;26.15;41.81;99659.09;5028860;28;20195;-68
2021/08/02 09:40:57;;;;;;;3.97;1.40;;;;;;;26.30;43.30;99657.59;5042290;28;20664;-68
2021/08/02 09:43:27;;;;;;;2.42;1.10;;;;;;;26.35;43.28;99659.72;5026441;28;20206;-68
2021/08/02 09:46:16;;;;;;;3.15;0.90;;;;;;;26.37;43.76;99662.25;5025717;28;20226;-67
2021/08/02 09:48:47;;;;;;;1.90;1.15;;;;;;;26.10;44.50;99657.06;5026558;28;20214;-68
2021/08/02 09:51:19;;;;;;;2.40;1.02;;;;;;;25.94;43.20;99660.44;5028565;28;20203;-66
2021/08/02 09:53:49;;;;;;;2.78;1.20;;;;;;;25.83;43.85;99655.72;5028054;28;20241;-66
2021/08/02 09:56:19;;;;;;;0.95;0.80;;;;;;;25.84;44.18;99655.47;5025817;28;20245;-67
2021/08/02 09:59:08;;;;;;;1.35;0.85;;;;;;;26.31;43.75;99656.53;5027611;28;20206;-67
2021/08/02 10:01:38;;;;;;;1.92;0.95;;;;;;;26.23;43.38;99656.03;5028618;28;20206;-67
2021/08/02 10:04:07;;;;;;;0.90;0.80;;;;;;;26.39;42.84;99660.09;5023462;28;20261;-67
2021/08/02 10:06:36;;;;;;;3.05;0.98;;;;;;;26.38;42.61;99655.66;5027663;28;20548;-67
2021/08/02 10:09:07;;;;;;;3.55;1.15;;;;;;;26.46;42.92;99671.84;5028570;28;20207;-68
2021/08/02 10:11:36;;;;;;;1.98;1.00;;;;;;;26.62;42.25;99665.66;5020900;28;20207;-70
2021/08/02 10:14:05;;;;;;;1.85;0.93;;;;;;;26.33;40.24;99683.88;5014010;28;20206;-69
2021/08/02 10:16:35;;;;;;;1.38;1.02;;;;;;;25.66;39.81;99683.81;5024158;28;20745;-70
2021/08/02 10:19:07;;;;;;;1.88;1.00;;;;;;;24.86;41.43;99681.97;5029627;28;20210;-66
2021/08/02 10:21:40;;;;;;;1.85;1.20;;;;;;;24.10;41.45;99671.84;5025780;28;20226;-66
2021/08/02 10:24:10;;;;;;;1.37;1.10;;;;;;;24.19;42.96;99677.94;5023007;28;20196;-69
2021/08/02 10:26:39;;;;;;;1.87;1.00;;;;;;;24.16;43.22;99691.00;5025429;28;20218;-66
2021/08/02 10:29:08;;;;;;;2.90;1.23;;;;;;;23.28;45.77;99716.31;5023216;28;20313;-69
2021/08/02 10:31:44;;;;;;;0.80;0.70;;;;;;;22.73;48.14;99707.41;5025036;28;20205;-69
2021/08/02 10:34:19;;;;;;;2.53;0.90;;;;;;;21.85;50.59;99726.41;5017995;28;20198;-69
2021/08/02 10:36:58;;;;;;;5.13;1.10;;;;;;;20.46;52.92;99725.22;5022406;28;20206;-70
2021/08/02 10:39:28;;;;;;;3.33;1.10;;;;;;;19.89;54.70;99748.78;5018164;28;20259;-67
2021/08/02 10:42:08;;;;;;;5.10;1.17;;;;;;;19.81;54.92;99703.41;5024264;28;20218;-67
2021/08/02 10:44:58;;;;;;;1.00;1.00;;;;;;;19.43;55.26;99746.22;5020906;28;20722;-69
2021/08/02 10:47:38;;;;;;;0.90;0.90;;;;;;;19.29;55.46;99744.31;5027911;28;20234;-69
2021/08/02 10:50:11;;;;;;;2.43;1.33;;;;;;;19.04;56.72;99740.97;5026043;28;20679;-69
2021/08/02 10:52:39;;;;;;;1.00;0.90;;;;;;;18.95;56.71;99739.31;5026119;28;20195;-69
2021/08/02 10:55:15;;;;;;;3.80;1.40;;;;;;;18.36;57.46;99730.88;5027879;28;20282;-69
2021/08/02 10:57:43;;;;;;;3.67;1.37;;;;;;;18.54;58.25;99731.44;5027253;28;20198;-70
2021/08/02 11:00:20;;;;;;;1.63;1.20;;;;;;;18.72;57.00;99725.75;5027342;28;20615;-69
2021/08/02 11:02:51;;;;;;;2.93;1.27;;;;;;;18.91;56.89;99727.97;5027422;28;20206;-69
2021/08/02 11:05:22;;;;;;;1.33;1.00;;;;;;;19.30;55.47;99727.81;5025475;28;20204;-69
2021/08/02 11:07:50;;;;;;;1.53;1.07;;;;;;;18.93;57.12;99734.91;5011989;28;20227;-67
2021/08/02 11:10:19;;;;;;;2.93;1.17;;;;;;;18.69;57.55;99718.81;5011101;28;20196;-66
2021/08/02 11:12:48;;;;;;;1.80;1.10;;;;;;;18.45;58.07;99681.72;5026809;28;20214;-66
2021/08/02 11:15:16;;;;;;;3.53;1.47;;;;;;;19.10;58.97;99743.78;5012964;28;20204;-69
2021/08/02 11:17:51;;;;;;;1.30;1.17;;;;;;;19.19;58.04;99725.50;5028895;28;20550;-66
2021/08/02 11:20:24;;;;;;;1.27;1.17;;;;;;;18.82;58.52;99754.41;5027820;28;20202;-69
2021/08/02 11:22:54;;;;;;;2.07;1.13;;;;;;;18.75;58.44;99748.00;5023443;28;20199;-69
2021/08/02 11:25:24;;;;;;;1.63;1.17;;;;;;;18.90;59.61;99765.22;5021128;28;20207;-69
2021/08/02 11:27:54;;;;;;;2.37;1.30;;;;;;;18.91;58.67;99766.91;5019948;28;20314;-69
2021/08/02 11:30:22;;;;;;;2.53;1.37;;;;;;;19.05;59.21;99781.59;5022001;28;20249;-69
2021/08/02 11:32:51;;;;;;;3.37;1.30;;;;;;;18.61;59.01;99787.66;5018780;28;20889;-68
2021/08/02 11:35:19;;;;;;;1.80;1.10;;;;;;;18.61;60.00;99798.53;5027924;28;20274;-69
2021/08/02 11:37:52;;;;;;;3.20;1.50;;;;;;;18.54;60.91;99796.72;5022730;28;20214;-69
2021/08/02 11:40:20;;;;;;;2.60;1.13;;;;;;;18.24;60.38;99807.38;5040052;28;20700;-69
2021/08/02 11:42:51;;;;;;;1.70;1.17;;;;;;;18.12;61.71;99808.81;5033069;28;20203;-69
2021/08/02 11:45:20;;;;;;;1.10;1.00;;;;;;;18.38;60.97;99802.25;5028578;28;20209;-69
2021/08/02 11:47:48;;;;;;;1.83;1.20;;;;;;;18.34;61.79;99800.88;5042978;28;20908;-69
2021/08/02 11:50:17;;;;;;;2.83;1.23;;;;;;;18.24;62.00;99807.38;5031557;28;20253;-68
2021/08/02 11:52:46;;;;;;;2.63;1.27;;;;;;;18.34;62.00;99812.59;5029380;28;20199;-69